createdAt,value
2023-03-07T00:00:22.040Z,25.88
2023-03-07T00:02:24.650Z,23.45
2023-03-07T00:04:27.210Z,25.50
2023-03-07T00:06:30.016Z,23.73
2023-03-07T00:08:33.217Z,25.25
2023-03-07T00:10:35.777Z,21.95
2023-03-07T00:12:40.446Z,25.38
2023-03-07T00:14:43.072Z,19.98
2023-03-07T00:16:45.892Z,23.83
2023-03-07T00:18:48.909Z,23.50
2023-03-07T00:20:58.111Z,22.73
2023-03-07T00:23:00.783Z,19.63
2023-03-07T00:25:03.567Z,23.80
2023-03-07T00:27:06.587Z,23.40
2023-03-07T00:29:11.727Z,20.90
2023-03-07T00:31:14.541Z,20.88
2023-03-07T00:33:17.136Z,21.38
2023-03-07T00:35:19.683Z,20.27
2023-03-07T00:37:22.763Z,24.13
2023-03-07T00:39:25.341Z,23.00
2023-03-07T00:41:29.403Z,21.95
2023-03-07T00:43:32.578Z,28.95
2023-03-07T00:45:36.485Z,22.52
2023-03-07T00:47:39.093Z,24.13
2023-03-07T00:49:41.656Z,20.90
2023-03-07T00:58:29.143Z,23.20
2023-03-07T01:00:31.749Z,23.65
2023-03-07T01:02:35.646Z,21.48
2023-03-07T01:04:38.280Z,22.88
2023-03-07T01:06:43.194Z,24.23
2023-03-07T01:08:48.605Z,22.52
2023-03-07T01:10:51.742Z,25.38
2023-03-07T01:12:54.615Z,27.15
2023-03-07T01:14:57.249Z,23.70
2023-03-07T01:17:01.039Z,21.73
2023-03-07T01:19:06.585Z,24.52
2023-03-07T01:21:14.473Z,19.73
2023-03-07T01:23:17.113Z,19.83
2023-03-07T01:25:19.720Z,21.50
2023-03-07T01:27:22.321Z,20.83
2023-03-07T01:29:25.087Z,21.77
2023-03-07T01:31:30.076Z,20.05
2023-03-07T01:33:32.685Z,21.67
2023-03-07T01:35:39.927Z,20.90
2023-03-07T01:37:42.547Z,18.13
2023-03-07T01:39:45.235Z,22.02
2023-03-07T01:41:47.814Z,19.63
2023-03-07T01:43:51.016Z,22.85
2023-03-07T01:46:26.990Z,20.33
2023-03-07T01:48:29.647Z,21.00
2023-03-07T01:50:32.457Z,23.77
2023-03-07T01:52:40.860Z,25.45
2023-03-07T01:54:49.072Z,27.10
2023-03-07T01:56:53.308Z,20.65
2023-03-07T01:58:56.718Z,18.20
2023-03-07T02:00:59.665Z,22.55
2023-03-07T02:03:10.219Z,20.08
2023-03-07T02:05:16.134Z,22.10
2023-03-07T02:07:21.604Z,20.80
2023-03-07T02:09:28.038Z,24.63
2023-03-07T02:11:31.441Z,22.15
2023-03-07T02:13:35.247Z,22.77
2023-03-07T02:15:38.447Z,23.33
2023-03-07T02:17:42.861Z,21.98
2023-03-07T02:20:05.761Z,22.80
2023-03-07T02:22:15.644Z,18.83
2023-03-07T02:24:27.112Z,20.52
2023-03-07T02:26:41.774Z,21.83
2023-03-07T02:28:46.930Z,22.00
2023-03-07T02:30:57.942Z,23.10
2023-03-07T02:33:00.542Z,23.48
2023-03-07T02:35:03.286Z,20.40
2023-03-07T02:37:11.782Z,22.33
2023-03-07T02:39:15.047Z,19.42
2023-03-07T02:41:21.829Z,19.60
2023-03-07T02:43:26.195Z,22.23
2023-03-07T02:45:28.802Z,19.02
2023-03-07T02:47:31.425Z,20.60
2023-03-07T02:49:34.025Z,22.85
2023-03-07T02:51:36.626Z,22.45
2023-03-07T02:53:39.446Z,26.13
2023-03-07T02:55:42.033Z,18.77
2023-03-07T02:57:44.606Z,19.35
2023-03-07T02:59:48.721Z,21.63
2023-03-07T03:01:51.515Z,20.83
2023-03-07T03:03:54.337Z,20.13
2023-03-07T03:05:56.877Z,21.92
2023-03-07T03:07:59.431Z,22.02
2023-03-07T03:10:02.050Z,26.65
2023-03-07T03:12:04.974Z,21.60
2023-03-07T03:14:07.615Z,18.63
2023-03-07T03:16:11.543Z,22.95
2023-03-07T03:18:14.246Z,20.15
2023-03-07T03:20:17.146Z,19.13
2023-03-07T03:22:20.419Z,18.17
2023-03-07T03:24:23.025Z,23.50
2023-03-07T03:26:25.594Z,19.17
2023-03-07T03:28:29.138Z,20.30
2023-03-07T03:30:32.409Z,27.92
2023-03-07T03:32:37.850Z,20.75
2023-03-07T03:34:40.714Z,18.77
2023-03-07T03:36:43.396Z,20.95
2023-03-07T03:38:46.835Z,18.63
2023-03-07T03:40:49.463Z,22.58
2023-03-07T03:42:52.760Z,25.60
2023-03-07T03:44:55.348Z,23.40
2023-03-07T03:46:58.059Z,23.60
2023-03-07T03:49:02.016Z,21.45
2023-03-07T03:51:06.635Z,24.25
2023-03-07T03:53:09.202Z,22.63
2023-03-07T03:55:11.991Z,31.60
2023-03-07T03:57:17.804Z,21.38
2023-03-07T03:59:20.456Z,18.55
2023-03-07T04:01:25.169Z,42.13
2023-03-07T04:03:27.733Z,26.48
2023-03-07T04:05:34.034Z,33.00
2023-03-07T04:07:36.630Z,20.80
2023-03-07T04:09:39.234Z,25.40
2023-03-07T04:11:42.052Z,25.63
2023-03-07T04:13:44.670Z,21.65
2023-03-07T04:15:47.296Z,21.05
2023-03-07T04:17:49.897Z,25.15
2023-03-07T04:19:53.019Z,18.15
2023-03-07T04:21:56.955Z,23.92
2023-03-07T04:23:59.531Z,21.95
2023-03-07T04:26:03.749Z,17.10
2023-03-07T04:28:06.457Z,21.17
2023-03-07T04:30:10.481Z,19.98
2023-03-07T04:32:13.046Z,20.85
2023-03-07T04:34:15.689Z,17.52
2023-03-07T04:36:19.604Z,20.65
2023-03-07T04:38:23.545Z,23.23
2023-03-07T04:40:26.231Z,19.65
2023-03-07T04:42:28.855Z,19.77
2023-03-07T04:44:31.435Z,27.38
2023-03-07T04:46:34.016Z,26.40
2023-03-07T04:48:36.646Z,25.38
2023-03-07T04:50:39.226Z,32.72
2023-03-07T04:52:41.843Z,24.42
2023-03-07T04:54:45.818Z,24.92
2023-03-07T04:56:48.382Z,26.40
2023-03-07T04:58:50.952Z,20.73
2023-03-07T05:00:53.506Z,24.30
2023-03-07T05:02:58.645Z,23.50
2023-03-07T05:05:01.217Z,21.52
2023-03-07T05:07:03.990Z,17.92
2023-03-07T05:09:06.543Z,19.38
2023-03-07T05:11:10.528Z,21.40
2023-03-07T05:13:13.321Z,18.80
2023-03-07T05:15:15.882Z,24.95
2023-03-07T05:17:20.168Z,20.80
2023-03-07T05:19:22.757Z,25.63
2023-03-07T05:21:25.402Z,28.85
2023-03-07T05:23:27.996Z,20.77
2023-03-07T05:25:30.564Z,21.02
2023-03-07T05:27:34.619Z,17.80
2023-03-07T05:29:37.167Z,20.38
2023-03-07T05:31:39.745Z,18.58
2023-03-07T05:33:42.839Z,27.25
2023-03-07T05:35:45.701Z,19.88
2023-03-07T05:37:48.532Z,20.60
2023-03-07T05:39:51.147Z,27.17
2023-03-07T05:41:53.737Z,21.23
2023-03-07T05:43:58.269Z,17.30
2023-03-07T05:46:00.925Z,19.05
2023-03-07T05:48:03.539Z,20.00
2023-03-07T05:50:07.520Z,21.20
2023-03-07T05:52:10.130Z,25.00
2023-03-07T05:54:12.683Z,20.10
2023-03-07T05:56:15.281Z,22.50
2023-03-07T05:58:17.867Z,22.90
2023-03-07T06:00:23.227Z,16.75
2023-03-07T06:02:25.913Z,23.33
2023-03-07T06:04:28.625Z,21.10
2023-03-07T06:06:31.234Z,25.50
2023-03-07T06:08:33.847Z,17.17
2023-03-07T06:10:40.202Z,23.23
2023-03-07T06:12:43.061Z,21.42
2023-03-07T06:14:45.680Z,20.55
2023-03-07T06:16:49.633Z,18.90
2023-03-07T06:18:52.232Z,24.23
2023-03-07T06:20:59.613Z,22.25
2023-03-07T06:23:02.434Z,20.55
2023-03-07T06:25:05.378Z,18.73
2023-03-07T06:27:08.051Z,19.60
2023-03-07T06:29:11.706Z,17.85
2023-03-07T06:31:16.953Z,24.27
2023-03-07T06:33:21.710Z,18.65
2023-03-07T06:35:24.299Z,15.38
2023-03-07T06:37:26.970Z,19.77
2023-03-07T06:39:31.316Z,18.98
2023-03-07T06:41:34.086Z,17.95
2023-03-07T06:43:37.064Z,19.55
2023-03-07T06:45:39.648Z,20.30
2023-03-07T06:47:42.243Z,18.13
2023-03-07T06:49:46.143Z,21.45
2023-03-07T06:51:48.735Z,16.52
2023-03-07T06:53:51.332Z,28.27
2023-03-07T06:55:54.010Z,17.55
2023-03-07T06:57:56.756Z,18.80
2023-03-07T06:59:59.339Z,17.35
2023-03-07T07:02:02.670Z,21.65
2023-03-07T07:04:05.731Z,21.00
2023-03-07T07:06:09.639Z,21.88
2023-03-07T07:08:12.790Z,17.73
2023-03-07T07:10:15.449Z,16.60
2023-03-07T07:12:18.361Z,17.08
2023-03-07T07:14:21.931Z,20.10
2023-03-07T07:16:24.582Z,19.75
2023-03-07T07:18:27.184Z,17.05
2023-03-07T07:20:30.197Z,19.17
2023-03-07T07:22:34.783Z,17.95
2023-03-07T07:24:37.386Z,17.45
2023-03-07T07:26:40.015Z,21.90
2023-03-07T07:28:42.708Z,17.13
2023-03-07T07:30:45.376Z,20.55
2023-03-07T07:32:48.179Z,28.48
2023-03-07T07:34:53.858Z,16.20
2023-03-07T07:36:56.826Z,20.75
2023-03-07T07:39:03.938Z,18.48
2023-03-07T07:41:06.879Z,20.08
2023-03-07T07:43:15.306Z,18.70
2023-03-07T07:45:18.106Z,18.42
2023-03-07T07:47:20.678Z,17.17
2023-03-07T07:49:23.292Z,19.25
2023-03-07T07:51:25.871Z,17.60
2023-03-07T07:53:28.593Z,20.15
2023-03-07T07:55:32.597Z,18.40
2023-03-07T07:57:35.173Z,16.58
2023-03-07T07:59:37.745Z,16.67
2023-03-07T08:01:40.452Z,18.20
2023-03-07T08:03:43.220Z,18.35
2023-03-07T08:05:48.174Z,15.73
2023-03-07T08:07:51.165Z,19.40
2023-03-07T08:09:53.963Z,20.73
2023-03-07T08:11:57.913Z,19.83
2023-03-07T08:14:00.742Z,15.98
2023-03-07T08:16:10.030Z,16.75
2023-03-07T08:18:12.874Z,19.75
2023-03-07T08:20:15.786Z,19.90
2023-03-07T08:22:19.514Z,15.73
2023-03-07T08:24:29.373Z,18.83
2023-03-07T08:26:41.251Z,20.05
2023-03-07T08:28:45.724Z,17.80
2023-03-07T08:30:48.309Z,16.80
2023-03-07T08:32:51.364Z,18.25
2023-03-07T08:34:54.624Z,19.08
2023-03-07T08:36:57.204Z,22.60
2023-03-07T08:38:59.772Z,15.05
2023-03-07T08:41:03.889Z,21.67
2023-03-07T08:43:06.502Z,19.30
2023-03-07T08:45:11.576Z,14.23
2023-03-07T08:47:14.156Z,16.42
2023-03-07T08:49:16.769Z,17.35
2023-03-07T08:51:19.561Z,16.05
2023-03-07T08:53:22.201Z,16.50
2023-03-07T08:55:24.767Z,19.17
2023-03-07T08:57:27.415Z,15.82
2023-03-07T08:59:29.989Z,18.98
2023-03-07T09:01:33.958Z,15.13
2023-03-07T09:03:37.441Z,16.25
2023-03-07T09:05:40.210Z,15.15
2023-03-07T09:07:43.094Z,16.40
2023-03-07T09:09:45.742Z,14.27
2023-03-07T09:11:48.333Z,17.77
2023-03-07T09:13:52.689Z,18.48
2023-03-07T09:15:55.846Z,13.43
2023-03-07T09:17:59.823Z,19.92
2023-03-07T09:20:02.502Z,15.68
2023-03-07T09:22:05.188Z,19.45
2023-03-07T09:24:08.300Z,18.40
2023-03-07T09:26:11.180Z,18.65
2023-03-07T09:28:14.462Z,16.52
2023-03-07T09:30:17.837Z,17.77
2023-03-07T09:32:20.553Z,15.23
2023-03-07T09:34:25.278Z,13.90
2023-03-07T09:36:27.898Z,13.82
2023-03-07T09:38:30.478Z,15.20
2023-03-07T09:40:33.187Z,14.55
2023-03-07T09:42:44.314Z,15.68
2023-03-07T09:45:04.269Z,13.80
2023-03-07T09:47:23.148Z,15.00
2023-03-07T09:49:35.864Z,17.60
2023-03-07T09:51:41.895Z,13.57
2023-03-07T09:53:48.826Z,15.48
2023-03-07T09:55:55.609Z,15.57
2023-03-07T09:58:01.691Z,16.58
2023-03-07T10:00:09.037Z,16.77
2023-03-07T10:02:18.978Z,14.48
2023-03-07T10:04:42.400Z,14.48
2023-03-07T10:06:52.529Z,15.48
2023-03-07T10:08:56.540Z,16.05
2023-03-07T10:11:12.245Z,14.32
2023-03-07T10:13:44.005Z,15.00
2023-03-07T10:15:48.939Z,14.23
2023-03-07T10:18:13.711Z,12.63
2023-03-07T10:20:23.544Z,18.88
2023-03-07T10:22:34.991Z,15.95
2023-03-07T10:25:00.106Z,17.63
2023-03-07T10:27:06.593Z,13.90
2023-03-07T10:29:16.000Z,12.43
2023-03-07T10:31:23.415Z,13.63
2023-03-07T10:33:27.391Z,16.67
2023-03-07T10:35:40.327Z,16.08
2023-03-07T10:37:50.304Z,13.27
2023-03-07T10:39:54.722Z,12.18
2023-03-07T10:41:58.046Z,12.90
2023-03-07T10:44:00.756Z,12.63
2023-03-07T10:46:24.610Z,13.52
2023-03-07T10:48:29.283Z,14.05
2023-03-07T10:50:39.387Z,16.80
2023-03-07T10:52:48.601Z,14.60
2023-03-07T10:54:51.169Z,18.13
2023-03-07T10:57:08.492Z,17.13
2023-03-07T10:59:11.473Z,19.23
2023-03-07T11:01:18.479Z,14.65
2023-03-07T11:03:25.355Z,13.70
2023-03-07T11:05:32.513Z,15.82
2023-03-07T11:07:37.295Z,18.23
2023-03-07T11:09:48.381Z,15.00
2023-03-07T11:11:53.961Z,16.88
2023-03-07T11:14:07.879Z,13.25
2023-03-07T11:16:21.295Z,14.40
2023-03-07T11:18:31.905Z,13.38
2023-03-07T11:20:49.368Z,15.32
2023-03-07T11:23:14.464Z,17.15
2023-03-07T11:25:22.724Z,17.00
2023-03-07T11:27:32.877Z,17.83
2023-03-07T11:29:35.618Z,17.38
2023-03-07T11:31:53.370Z,16.83
2023-03-07T11:34:08.114Z,16.13
2023-03-07T11:36:15.540Z,15.32
2023-03-07T11:38:26.580Z,16.65
2023-03-07T11:40:34.782Z,14.80
2023-03-07T11:42:43.833Z,16.98
2023-03-07T11:44:53.147Z,17.08
2023-03-07T11:47:12.601Z,17.63
2023-03-07T11:49:27.483Z,18.33
2023-03-07T11:51:45.474Z,16.15
2023-03-07T11:53:57.915Z,15.88
2023-03-07T11:56:20.375Z,19.63
2023-03-07T11:58:52.011Z,18.75
2023-03-07T12:01:09.848Z,21.92
2023-03-07T12:03:49.862Z,16.63
2023-03-07T12:06:23.602Z,19.33
2023-03-07T12:08:38.639Z,17.05
2023-03-07T12:10:53.667Z,19.50
2023-03-07T12:13:07.638Z,17.33
2023-03-07T12:15:28.231Z,20.85
2023-03-07T12:17:43.465Z,16.65
2023-03-07T12:20:09.067Z,19.95
2023-03-07T12:22:29.657Z,14.40
2023-03-07T12:24:38.391Z,17.67
2023-03-07T12:26:51.441Z,15.35
2023-03-07T12:29:01.938Z,17.73
2023-03-07T12:31:12.375Z,14.75
2023-03-07T12:33:23.834Z,17.85
2023-03-07T12:35:31.633Z,18.42
2023-03-07T12:37:43.568Z,17.50
2023-03-07T12:39:52.348Z,15.38
2023-03-07T12:42:04.610Z,18.15
2023-03-07T12:44:16.283Z,15.35
2023-03-07T12:46:24.407Z,15.57
2023-03-07T12:48:37.478Z,16.17
2023-03-07T12:50:51.693Z,16.75
2023-03-07T12:52:59.940Z,16.38
2023-03-07T12:55:09.654Z,18.55
2023-03-07T12:57:18.747Z,19.95
2023-03-07T12:59:23.230Z,15.55
2023-03-07T13:01:30.374Z,17.55
2023-03-07T13:03:42.336Z,14.00
2023-03-07T13:07:48.807Z,12.55
2023-03-07T13:09:53.934Z,13.38
2023-03-07T13:12:24.534Z,14.95
2023-03-07T13:14:41.971Z,13.38
2023-03-07T13:16:46.030Z,14.57
2023-03-07T13:18:48.688Z,11.98
2023-03-07T13:21:23.785Z,11.73
2023-03-07T13:23:29.822Z,9.13
2023-03-07T13:26:00.412Z,12.60
2023-03-07T13:28:04.528Z,11.75
2023-03-07T13:30:21.536Z,10.38
2023-03-07T13:32:59.422Z,13.63
2023-03-07T13:35:02.479Z,9.82
2023-03-07T13:37:46.701Z,11.57
2023-03-07T13:40:02.720Z,13.05
2023-03-07T13:42:05.592Z,12.68
2023-03-07T13:44:29.011Z,13.13
2023-03-07T13:47:01.268Z,12.52
2023-03-07T13:51:08.937Z,11.23
2023-03-07T13:53:15.717Z,15.90
2023-03-07T13:55:41.809Z,12.38
2023-03-07T13:57:44.629Z,13.45
2023-03-07T13:59:49.410Z,15.38
2023-03-07T14:01:58.501Z,12.65
2023-03-07T14:04:07.413Z,14.18
2023-03-07T14:06:14.702Z,13.68
2023-03-07T14:08:17.294Z,13.43
2023-03-07T14:10:25.248Z,13.68
2023-03-07T14:12:36.409Z,18.70
2023-03-07T14:15:05.496Z,18.80
2023-03-07T14:17:19.300Z,13.38
2023-03-07T14:19:35.443Z,13.93
2023-03-07T14:21:53.696Z,18.77
2023-03-07T14:24:26.353Z,13.45
2023-03-07T14:26:33.772Z,13.45
2023-03-07T14:28:36.386Z,12.63
2023-03-07T14:30:38.961Z,14.98
2023-03-07T14:32:42.934Z,14.38
2023-03-07T14:34:48.974Z,13.27
2023-03-07T14:36:54.600Z,13.07
2023-03-07T14:39:02.139Z,15.57
2023-03-07T14:41:29.256Z,13.27
2023-03-07T14:43:44.624Z,14.98
2023-03-07T14:45:53.770Z,11.15
2023-03-07T14:48:20.123Z,10.05
2023-03-07T14:50:26.771Z,13.60
2023-03-07T14:52:31.782Z,11.90
2023-03-07T14:54:38.188Z,11.70
2023-03-07T14:56:41.138Z,11.38
2023-03-07T14:58:50.381Z,14.32
2023-03-07T15:01:01.167Z,11.85
2023-03-07T15:03:08.069Z,12.82
2023-03-07T15:05:16.151Z,13.65
2023-03-07T15:07:25.398Z,12.77
2023-03-07T15:09:29.624Z,12.63
2023-03-07T15:11:37.926Z,11.07
2023-03-07T15:13:46.623Z,10.73
2023-03-07T15:15:55.066Z,15.07
2023-03-07T15:18:03.299Z,12.38
2023-03-07T15:20:11.567Z,11.32
2023-03-07T15:22:19.348Z,12.43
2023-03-07T15:24:28.891Z,9.32
2023-03-07T15:26:33.042Z,11.80
2023-03-07T15:28:37.660Z,9.15
2023-03-07T15:30:40.306Z,9.60
2023-03-07T15:32:42.938Z,9.82
2023-03-07T15:34:45.611Z,11.63
2023-03-07T15:36:49.619Z,11.93
2023-03-07T15:38:54.213Z,12.45
2023-03-07T15:40:56.771Z,9.38
2023-03-07T15:43:02.273Z,9.32
2023-03-07T15:45:06.701Z,10.35
2023-03-07T15:47:17.875Z,9.95
2023-03-07T15:49:26.585Z,10.38
2023-03-07T15:51:36.742Z,7.90
2023-03-07T15:53:42.629Z,13.45
2023-03-07T15:55:54.973Z,10.57
2023-03-07T15:58:00.516Z,10.77
2023-03-07T16:00:05.642Z,9.38
2023-03-07T16:02:37.871Z,7.80
2023-03-07T16:04:40.774Z,13.10
2023-03-07T16:06:45.272Z,7.57
2023-03-07T16:08:49.818Z,7.82
2023-03-07T16:10:57.644Z,7.75
2023-03-07T16:13:01.420Z,8.57
2023-03-07T16:15:04.557Z,9.30
2023-03-07T16:17:18.434Z,8.77
2023-03-07T16:19:21.084Z,9.80
2023-03-07T16:21:23.972Z,7.22
2023-03-07T16:23:28.749Z,7.57
2023-03-07T16:25:32.934Z,11.32
2023-03-07T16:27:35.481Z,7.40
2023-03-07T16:29:38.111Z,11.35
2023-03-07T16:31:40.835Z,9.88
2023-03-07T16:33:43.851Z,8.30
2023-03-07T16:35:47.619Z,11.55
2023-03-07T16:37:50.311Z,12.70
2023-03-07T16:39:55.845Z,8.82
2023-03-07T16:42:00.130Z,9.10
2023-03-07T16:44:02.736Z,21.00
2023-03-07T16:46:07.337Z,15.93
2023-03-07T16:48:13.462Z,10.80
2023-03-07T16:50:17.390Z,9.10
2023-03-07T16:52:23.481Z,12.93
2023-03-07T16:54:26.088Z,9.23
2023-03-07T16:56:32.425Z,13.15
2023-03-07T16:58:37.046Z,9.68
2023-03-07T17:00:40.555Z,14.00
2023-03-07T17:02:43.481Z,9.20
2023-03-07T17:04:46.451Z,8.93
2023-03-07T17:07:00.969Z,13.95
2023-03-07T17:09:07.210Z,11.30
2023-03-07T17:11:17.751Z,9.45
2023-03-07T17:13:20.441Z,9.07
2023-03-07T17:15:30.336Z,14.38
2023-03-07T17:17:36.417Z,11.23
2023-03-07T17:19:39.045Z,12.10
2023-03-07T17:21:41.617Z,10.55
2023-03-07T17:23:45.076Z,12.27
2023-03-07T17:25:47.652Z,10.32
2023-03-07T17:27:55.251Z,13.13
2023-03-07T17:29:57.832Z,12.38
2023-03-07T17:32:01.926Z,15.73
2023-03-07T17:34:04.534Z,13.48
2023-03-07T17:36:08.019Z,10.05
2023-03-07T17:38:10.625Z,13.07
2023-03-07T17:40:14.000Z,15.18
2023-03-07T17:42:16.604Z,13.73
2023-03-07T17:44:19.247Z,14.25
2023-03-07T17:46:24.469Z,15.20
2023-03-07T17:48:28.570Z,12.25
2023-03-07T17:50:31.211Z,14.77
2023-03-07T17:52:34.532Z,12.85
2023-03-07T17:54:37.299Z,12.43
2023-03-07T17:56:40.607Z,13.20
2023-03-07T17:58:43.342Z,13.50
2023-03-07T18:00:45.944Z,13.75
2023-03-07T18:02:48.606Z,15.50
2023-03-07T18:04:52.638Z,14.95
2023-03-07T18:06:55.215Z,12.05
2023-03-07T18:08:57.777Z,13.65
2023-03-07T18:11:04.476Z,15.20
2023-03-07T18:13:09.375Z,15.75
2023-03-07T18:15:15.350Z,14.52
2023-03-07T18:17:18.058Z,15.85
2023-03-07T18:19:26.821Z,15.98
2023-03-07T18:21:31.315Z,13.35
2023-03-07T18:23:36.061Z,13.90
2023-03-07T18:25:38.613Z,15.43
2023-03-07T18:27:41.310Z,17.70
2023-03-07T18:29:44.933Z,15.77
2023-03-07T18:31:47.865Z,16.13
2023-03-07T18:33:52.591Z,16.83
2023-03-07T18:35:56.403Z,15.55
2023-03-07T18:38:00.725Z,16.67
2023-03-07T18:40:04.302Z,12.55
2023-03-07T18:42:07.015Z,17.67
2023-03-07T18:44:10.135Z,13.70
2023-03-07T18:46:14.408Z,19.08
2023-03-07T18:48:17.015Z,21.98
2023-03-07T18:50:19.841Z,19.75
2023-03-07T18:52:22.407Z,16.13
2023-03-07T18:54:26.496Z,17.73
2023-03-07T18:56:29.817Z,20.33
2023-03-07T18:58:32.621Z,17.63
2023-03-07T19:00:35.218Z,18.33
2023-03-07T19:02:38.875Z,17.52
2023-03-07T19:04:41.466Z,21.52
2023-03-07T19:06:47.496Z,17.38
2023-03-07T19:08:50.581Z,16.00
2023-03-07T19:10:54.523Z,17.23
2023-03-07T19:12:57.107Z,18.08
2023-03-07T19:14:59.756Z,17.00
2023-03-07T19:17:02.342Z,17.90
2023-03-07T19:19:04.989Z,22.30
2023-03-07T19:21:08.592Z,17.42
2023-03-07T19:23:11.229Z,20.02
2023-03-07T19:25:13.779Z,20.75
2023-03-07T19:27:17.727Z,23.35
2023-03-07T19:29:20.342Z,19.77
2023-03-07T19:31:24.591Z,17.33
2023-03-07T19:33:27.368Z,21.10
2023-03-07T19:35:29.943Z,25.05
2023-03-07T19:37:32.528Z,21.73
2023-03-07T19:39:35.892Z,22.40
2023-03-07T19:41:39.644Z,21.73
2023-03-07T19:43:43.825Z,21.30
2023-03-07T19:45:50.153Z,21.40
2023-03-07T19:47:52.793Z,20.17
2023-03-07T19:49:55.336Z,16.77
2023-03-07T19:51:58.000Z,24.02
2023-03-07T19:54:01.793Z,19.60
2023-03-07T19:56:10.278Z,19.90
2023-03-07T19:58:13.289Z,20.38
2023-03-07T20:00:17.876Z,14.77
2023-03-07T20:02:22.196Z,24.70
2023-03-07T20:04:24.799Z,17.95
2023-03-07T20:06:29.581Z,19.52
2023-03-07T20:08:33.660Z,21.58
2023-03-07T20:10:36.258Z,20.15
2023-03-07T20:12:38.856Z,18.75
2023-03-07T20:14:43.045Z,22.73
2023-03-07T20:16:46.934Z,21.55
2023-03-07T20:18:50.351Z,18.65
2023-03-07T20:20:53.372Z,22.08
2023-03-07T20:22:56.237Z,17.70
2023-03-07T20:24:59.012Z,20.17
2023-03-07T20:27:01.564Z,18.23
2023-03-07T20:29:06.860Z,19.95
2023-03-07T20:31:10.792Z,19.05
2023-03-07T20:33:14.798Z,19.88
2023-03-07T20:35:18.813Z,19.38
2023-03-07T20:37:21.443Z,20.63
2023-03-07T20:39:24.022Z,18.42
2023-03-07T20:41:30.785Z,20.30
2023-03-07T20:43:34.054Z,18.10
2023-03-07T20:45:36.625Z,18.70
2023-03-07T20:47:39.186Z,17.02
2023-03-07T20:49:43.212Z,16.98
2023-03-07T20:51:45.801Z,17.60
2023-03-07T20:53:49.707Z,19.23
2023-03-07T20:55:52.299Z,16.33
2023-03-07T20:57:54.873Z,18.35
2023-03-07T20:59:57.491Z,16.13
2023-03-07T21:02:00.118Z,16.70
2023-03-07T21:04:06.290Z,19.88
2023-03-07T21:06:10.459Z,21.20
2023-03-07T21:08:13.259Z,23.00
2023-03-07T21:10:15.990Z,18.95
2023-03-07T21:12:18.667Z,15.02
2023-03-07T21:14:21.642Z,17.95
2023-03-07T21:16:27.163Z,17.13
2023-03-07T21:18:29.779Z,13.77
2023-03-07T21:20:32.401Z,16.92
2023-03-07T21:22:37.728Z,19.30
2023-03-07T21:24:40.510Z,16.30
2023-03-07T21:26:43.103Z,17.75
2023-03-07T21:28:46.488Z,18.83
2023-03-07T21:30:49.764Z,19.30
2023-03-07T21:32:56.395Z,15.82
2023-03-07T21:34:58.979Z,15.43
2023-03-07T21:37:01.551Z,16.77
2023-03-07T21:39:07.780Z,16.45
2023-03-07T21:41:10.599Z,14.18
2023-03-07T21:43:13.757Z,18.90
2023-03-07T21:45:16.372Z,20.08
2023-03-07T21:47:23.587Z,12.95
2023-03-07T21:49:26.117Z,17.52
2023-03-07T21:51:28.905Z,15.73
2023-03-07T21:53:32.280Z,17.38
2023-03-07T21:55:36.344Z,15.15
2023-03-07T21:57:38.943Z,14.10
2023-03-07T21:59:41.530Z,18.73
2023-03-07T22:01:44.097Z,20.42
2023-03-07T22:03:47.087Z,16.10
2023-03-07T22:05:49.819Z,15.73
2023-03-07T22:07:52.761Z,18.75
2023-03-07T22:09:55.346Z,17.00
2023-03-07T22:11:59.266Z,15.70
2023-03-07T22:14:01.806Z,20.50
2023-03-07T22:16:07.103Z,17.10
2023-03-07T22:18:09.926Z,16.52
2023-03-07T22:20:13.286Z,16.33
2023-03-07T22:22:15.897Z,16.70
2023-03-07T22:24:18.446Z,16.13
2023-03-07T22:26:20.995Z,16.80
2023-03-07T22:28:27.345Z,20.17
2023-03-07T22:30:29.951Z,15.70
2023-03-07T22:32:32.598Z,16.50
2023-03-07T22:34:35.329Z,15.95
2023-03-07T22:36:37.912Z,14.43
2023-03-07T22:38:41.655Z,15.50
2023-03-07T22:40:44.426Z,13.43
2023-03-07T22:42:47.107Z,15.73
2023-03-07T22:44:51.070Z,16.48
2023-03-07T22:46:53.706Z,14.80
2023-03-07T22:48:57.538Z,17.08
2023-03-07T22:51:00.797Z,15.13
2023-03-07T22:53:03.435Z,17.25
2023-03-07T22:55:06.665Z,18.38
2023-03-07T22:57:09.277Z,19.23
2023-03-07T22:59:11.910Z,22.85
2023-03-07T23:01:20.142Z,19.35
2023-03-07T23:03:23.416Z,16.35
2023-03-07T23:05:26.073Z,18.02
2023-03-07T23:07:28.644Z,16.48
2023-03-07T23:09:31.243Z,18.20
2023-03-07T23:11:35.863Z,19.98
2023-03-07T23:13:38.543Z,18.25
2023-03-07T23:15:41.647Z,17.55
2023-03-07T23:17:45.641Z,18.08
2023-03-07T23:19:48.585Z,21.30
2023-03-07T23:21:51.239Z,19.98
2023-03-07T23:23:55.009Z,17.10
2023-03-07T23:26:00.561Z,18.88
2023-03-07T23:28:03.163Z,18.92
2023-03-07T23:30:07.229Z,21.77
2023-03-07T23:32:10.068Z,20.55
2023-03-07T23:34:17.392Z,18.48
2023-03-07T23:36:19.983Z,22.67
2023-03-07T23:38:22.576Z,19.88
2023-03-07T23:40:25.149Z,19.05
2023-03-07T23:42:27.754Z,23.23
2023-03-07T23:44:30.442Z,20.88
2023-03-07T23:46:33.190Z,20.90
2023-03-07T23:48:35.813Z,19.80
2023-03-07T23:50:39.774Z,20.15
2023-03-07T23:52:42.676Z,18.38
2023-03-07T23:54:45.771Z,22.40
2023-03-07T23:56:48.347Z,19.75
2023-03-07T23:58:51.574Z,21.88
